MGY weather

Dayton-Wright Brothers Airport
Dayton, Ohio, United States

Public forecast

Using degrees Fahrenheit for public forecast. Weather courtesy of forecast.io.

Current aviation weather report (METAR) for Dayton-Wright Brothers Airport

Retrieved 2020/05/29 05:53 UTC (9 minutes ago):

KMGY 290553Z AUTO 28005KT 10SM BKN035 OVC050 22/17 A2992 RMK AO2 SLP124 T02170172 10267 20206 50000

Closest aviation forecast (TAF) to Dayton-Wright Brothers Airport

Closest forecast is Wright-Patterson Air Force Base, 16.4 nm (30.4 km) NNE. Retrieved 2020-05-29 03:19 UTC (3 hours ago):

TAF KFFO 290300Z 2903/3009 21009KT 9999 SCT100 QNH2991INS BECMG 2915/2916 22015G20KT 9000 -SHRA BKN025 510152 QNH2990INS TEMPO 2916/2921 24020G25KT -TSRA BKN015CB BECMG 2922/2924 30009KT 9999 NSW SCT040 BKN050 QNH2995INS TX25/2903Z TN18/2910Z